Time;durP1;ratioP1;P1;durP2;ratioP2;P2;SDS_P1;SDS_P2;PMS_P1;PMS_P2;Temp;Humidity;BMP_temperature;BMP_pressure;BME280_temperature;BME280_humidity;BME280_pressure;Samples;Min_cycle;Max_cycle;Signal;HPM_P1;HPM_P2
2023/04/18 00:01:02;;;;;;;25.07;13.50;;;9.50;80.80;;;;;;5054902;28;20192;-76
2023/04/18 00:03:28;;;;;;;27.97;15.60;;;9.50;80.50;;;;;;5061858;28;20733;-75
2023/04/18 00:05:54;;;;;;;23.50;13.37;;;9.40;80.60;;;;;;5037013;28;20244;-75
2023/04/18 00:08:20;;;;;;;30.70;14.70;;;9.30;81.10;;;;;;5061628;28;20412;-75
2023/04/18 00:10:45;;;;;;;25.40;13.57;;;9.30;81.40;;;;;;5064654;28;20426;-76
2023/04/18 00:13:11;;;;;;;27.30;15.07;;;9.30;81.20;;;;;;5055461;28;20177;-77
2023/04/18 00:15:37;;;;;;;29.80;15.13;;;9.30;81.10;;;;;;5050344;28;20239;-75
2023/04/18 00:18:02;;;;;;;29.13;14.30;;;9.30;81.20;;;;;;5050396;28;20188;-76
2023/04/18 00:20:28;;;;;;;29.30;15.37;;;9.30;81.50;;;;;;5047374;28;20526;-76
2023/04/18 00:22:54;;;;;;;25.53;13.57;;;9.40;81.40;;;;;;5048973;28;20234;-76
2023/04/18 00:25:20;;;;;;;26.00;13.77;;;9.40;81.20;;;;;;5047443;28;20470;-76
2023/04/18 00:27:46;;;;;;;26.97;14.00;;;9.30;81.10;;;;;;5047531;28;21096;-77
2023/04/18 00:30:12;;;;;;;26.90;14.30;;;9.30;81.20;;;;;;5051850;28;20185;-76
2023/04/18 00:32:38;;;;;;;29.80;14.00;;;9.20;81.40;;;;;;5053703;28;20184;-77
2023/04/18 00:35:04;;;;;;;26.90;13.80;;;9.20;81.50;;;;;;5052335;28;20231;-75
2023/04/18 00:37:29;;;;;;;30.77;15.23;;;9.20;81.70;;;;;;5048412;28;20204;-77
2023/04/18 00:39:55;;;;;;;27.30;13.33;;;9.20;81.90;;;;;;5033494;28;20442;-76
2023/04/18 00:42:21;;;;;;;26.87;12.47;;;9.20;81.50;;;;;;5053474;28;20187;-76
2023/04/18 00:44:47;;;;;;;26.30;14.00;;;9.30;81.70;;;;;;5060477;28;20218;-76
2023/04/18 00:47:15;;;;;;;26.03;13.40;;;9.30;81.50;;;;;;5069888;28;20441;-76
2023/04/18 00:49:41;;;;;;;23.57;13.63;;;9.40;81.20;;;;;;5068531;28;20445;-77
2023/04/18 00:52:07;;;;;;;24.17;13.30;;;9.40;81.10;;;;;;5075132;28;20491;-77
2023/04/18 00:54:32;;;;;;;24.80;13.40;;;9.40;80.90;;;;;;5074765;28;20419;-76
2023/04/18 00:56:58;;;;;;;24.70;13.53;;;9.40;80.90;;;;;;5071034;28;20254;-77
2023/04/18 00:59:24;;;;;;;25.90;14.80;;;9.40;80.80;;;;;;5049122;28;20188;-77
2023/04/18 01:01:50;;;;;;;26.40;12.73;;;9.50;80.90;;;;;;5055546;28;20177;-75
2023/04/18 01:04:15;;;;;;;26.83;14.07;;;9.40;80.60;;;;;;5063710;28;20256;-76
2023/04/18 01:06:42;;;;;;;25.43;13.90;;;9.30;81.10;;;;;;5067927;28;20216;-76
2023/04/18 01:09:09;;;;;;;25.47;13.13;;;9.30;81.20;;;;;;5073526;28;20168;-77
2023/04/18 01:11:35;;;;;;;25.87;14.13;;;9.30;81.10;;;;;;5071982;28;20415;-75
2023/04/18 01:14:01;;;;;;;27.37;13.83;;;9.20;81.20;;;;;;5051274;28;20433;-77
2023/04/18 01:16:28;;;;;;;26.27;13.40;;;9.10;81.50;;;;;;5061815;28;20213;-76
2023/04/18 01:18:55;;;;;;;27.57;13.67;;;9.10;81.90;;;;;;5070843;28;20415;-76
2023/04/18 01:21:21;;;;;;;28.40;14.30;;;9.10;81.90;;;;;;5069181;28;20418;-77
2023/04/18 01:23:47;;;;;;;27.87;12.80;;;9.20;82.10;;;;;;5064448;28;20423;-76
2023/04/18 01:26:13;;;;;;;26.40;13.20;;;9.20;81.90;;;;;;5066556;28;20506;-76
2023/04/18 01:28:39;;;;;;;29.00;14.07;;;9.30;81.70;;;;;;5069487;28;20419;-77
2023/04/18 01:31:05;;;;;;;27.80;13.67;;;9.30;81.40;;;;;;5067346;28;20180;-76
2023/04/18 01:33:30;;;;;;;26.60;13.60;;;9.20;81.40;;;;;;5066461;28;20231;-76
2023/04/18 01:35:56;;;;;;;27.50;15.17;;;9.10;81.70;;;;;;5061407;28;20239;-75
2023/04/18 01:38:21;;;;;;;27.43;13.70;;;9.00;82.20;;;;;;5068425;28;20199;-78
2023/04/18 01:40:48;;;;;;;33.03;15.37;;;9.00;82.40;;;;;;5063657;28;20184;-76
2023/04/18 01:43:13;;;;;;;23.93;14.23;;;8.90;82.50;;;;;;5066935;28;20238;-76
2023/04/18 01:45:39;;;;;;;27.43;12.73;;;9.00;82.80;;;;;;5059227;28;20474;-77
2023/04/18 01:48:05;;;;;;;26.97;13.00;;;9.00;82.80;;;;;;5058257;28;20216;-76
2023/04/18 01:50:30;;;;;;;23.47;12.93;;;9.10;82.50;;;;;;5044215;28;20662;-76
2023/04/18 01:52:56;;;;;;;25.10;12.37;;;9.20;82.20;;;;;;5059220;28;20240;-77
2023/04/18 01:55:22;;;;;;;25.83;13.03;;;9.30;81.70;;;;;;5055361;28;20230;-76
2023/04/18 01:57:49;;;;;;;23.80;12.30;;;9.20;81.20;;;;;;5056146;28;20196;-76
2023/04/18 02:00:15;;;;;;;26.73;14.20;;;9.10;81.40;;;;;;5064454;28;20666;-78
2023/04/18 02:02:41;;;;;;;18.87;11.30;;;9.10;81.70;;;;;;5046426;28;20853;-78
2023/04/18 02:05:07;;;;;;;29.37;14.13;;;9.00;81.80;;;;;;5062585;28;20455;-77
2023/04/18 02:07:33;;;;;;;27.77;12.60;;;9.00;81.90;;;;;;5064907;28;20212;-77
2023/04/18 02:09:58;;;;;;;25.40;13.93;;;9.00;82.10;;;;;;5063858;28;20425;-79
2023/04/18 02:12:24;;;;;;;26.83;13.30;;;9.00;82.10;;;;;;5059993;28;20230;-75
2023/04/18 02:14:52;;;;;;;28.00;14.03;;;9.00;82.10;;;;;;5069936;28;20230;-75
2023/04/18 02:17:20;;;;;;;25.37;13.20;;;9.00;81.90;;;;;;5049839;28;20208;-75
2023/04/18 02:19:45;;;;;;;28.33;13.80;;;8.90;81.90;;;;;;5066088;28;20426;-77
2023/04/18 02:22:11;;;;;;;26.20;13.17;;;8.80;82.10;;;;;;5055485;28;20429;-77
2023/04/18 02:24:37;;;;;;;24.27;13.00;;;8.80;82.40;;;;;;5054535;28;20208;-75
2023/04/18 02:27:02;;;;;;;22.87;12.50;;;8.80;82.70;;;;;;5047086;28;20216;-77
2023/04/18 02:29:29;;;;;;;27.50;14.30;;;8.80;82.80;;;;;;5051651;28;20197;-78
2023/04/18 02:31:55;;;;;;;25.77;12.70;;;8.80;82.80;;;;;;5049814;28;20208;-76
2023/04/18 02:34:21;;;;;;;25.93;13.43;;;8.80;82.80;;;;;;5057035;28;20486;-76
2023/04/18 02:36:46;;;;;;;24.80;12.47;;;8.60;82.70;;;;;;5049225;28;20488;-75
2023/04/18 02:39:12;;;;;;;26.53;14.53;;;8.60;83.40;;;;;;5037970;28;20238;-76
2023/04/18 02:41:38;;;;;;;23.43;12.80;;;8.60;83.60;;;;;;5038181;28;20184;-78
2023/04/18 02:44:05;;;;;;;23.47;13.30;;;8.60;83.40;;;;;;5040716;28;20283;-77
2023/04/18 02:46:31;;;;;;;28.13;13.63;;;8.60;83.40;;;;;;5064374;28;20493;-77
2023/04/18 02:48:57;;;;;;;28.77;15.30;;;8.50;83.40;;;;;;5062105;28;20415;-76
2023/04/18 02:51:22;;;;;;;29.63;15.23;;;8.50;83.60;;;;;;5065272;28;20226;-77
2023/04/18 02:53:50;;;;;;;26.70;13.97;;;8.50;83.70;;;;;;5073471;28;20255;-76
2023/04/18 02:56:16;;;;;;;27.17;13.57;;;8.50;83.70;;;;;;5057771;28;20201;-78
2023/04/18 02:58:42;;;;;;;26.77;13.20;;;8.50;83.60;;;;;;5076054;28;20461;-77
2023/04/18 03:01:07;;;;;;;28.63;13.63;;;8.50;83.60;;;;;;5071066;28;20214;-77
2023/04/18 03:03:33;;;;;;;24.83;12.07;;;8.60;83.60;;;;;;5055066;28;20188;-77
2023/04/18 03:05:59;;;;;;;28.40;13.50;;;8.60;83.40;;;;;;5049901;28;20573;-77
2023/04/18 03:08:24;;;;;;;26.30;13.37;;;8.50;83.30;;;;;;5052403;28;20177;-76
2023/04/18 03:10:50;;;;;;;26.33;12.77;;;8.50;83.40;;;;;;5036417;28;20419;-77
2023/04/18 03:13:16;;;;;;;26.13;13.30;;;8.40;83.10;;;;;;5053785;28;20203;-77
2023/04/18 03:15:41;;;;;;;26.27;12.03;;;8.40;83.40;;;;;;5051574;28;20188;-78
2023/04/18 03:18:07;;;;;;;25.20;13.23;;;8.40;83.30;;;;;;5051853;28;20514;-77
2023/04/18 03:20:33;;;;;;;22.27;12.33;;;8.30;83.30;;;;;;5053755;28;20196;-77
2023/04/18 03:22:59;;;;;;;25.27;13.00;;;8.20;83.40;;;;;;5053814;28;20188;-76
2023/04/18 03:25:24;;;;;;;29.60;13.83;;;8.20;84.00;;;;;;5057495;28;20505;-77
2023/04/18 03:27:50;;;;;;;24.80;12.20;;;8.20;84.10;;;;;;5051705;28;20260;-78
2023/04/18 03:30:16;;;;;;;23.60;13.20;;;8.20;84.30;;;;;;5053706;28;20195;-76
2023/04/18 03:32:42;;;;;;;27.20;14.20;;;8.20;84.30;;;;;;5053066;28;20200;-78
2023/04/18 03:35:08;;;;;;;25.40;13.43;;;8.20;84.00;;;;;;5052621;28;20434;-76
2023/04/18 03:37:34;;;;;;;27.10;12.53;;;8.30;84.00;;;;;;5047935;28;20213;-76
2023/04/18 03:39:59;;;;;;;24.13;12.50;;;8.20;84.00;;;;;;5053286;28;20515;-77
2023/04/18 03:42:25;;;;;;;24.07;12.23;;;8.20;84.10;;;;;;5035311;28;20224;-76
2023/04/18 03:44:50;;;;;;;30.23;13.50;;;8.30;84.30;;;;;;5053142;28;20211;-75
2023/04/18 03:47:16;;;;;;;29.90;14.33;;;8.30;83.80;;;;;;5050875;28;20208;-77
2023/04/18 03:49:42;;;;;;;25.57;13.07;;;8.30;83.70;;;;;;5054185;28;20184;-77
2023/04/18 03:52:07;;;;;;;26.07;12.60;;;8.30;83.40;;;;;;5055125;28;20692;-75
2023/04/18 03:54:33;;;;;;;26.53;13.50;;;8.30;83.40;;;;;;5058855;28;20211;-77
2023/04/18 03:56:58;;;;;;;22.20;12.20;;;8.30;83.70;;;;;;5073714;28;20212;-77
2023/04/18 03:59:25;;;;;;;24.63;13.00;;;8.30;83.70;;;;;;5074785;28;20696;-78
2023/04/18 04:01:50;;;;;;;28.33;13.20;;;8.30;83.60;;;;;;5074248;28;20225;-77
2023/04/18 04:04:16;;;;;;;25.33;12.97;;;8.20;83.40;;;;;;5073204;28;20502;-76
2023/04/18 04:06:42;;;;;;;27.70;13.43;;;8.20;83.80;;;;;;5065885;28;20223;-77
2023/04/18 04:09:07;;;;;;;27.73;13.00;;;8.20;83.70;;;;;;5067190;28;20180;-78
2023/04/18 04:11:33;;;;;;;22.03;12.10;;;8.20;83.80;;;;;;5060409;28;20643;-77
2023/04/18 04:13:59;;;;;;;22.77;13.20;;;8.30;83.80;;;;;;5056927;28;20612;-78
2023/04/18 04:16:26;;;;;;;25.33;12.50;;;8.30;83.70;;;;;;5052665;28;20215;-77
2023/04/18 04:18:51;;;;;;;28.10;13.33;;;8.30;83.70;;;;;;5053997;28;20445;-77
2023/04/18 04:21:17;;;;;;;27.20;12.60;;;8.40;83.70;;;;;;5053887;28;20793;-76
2023/04/18 04:23:42;;;;;;;26.27;12.70;;;8.40;83.70;;;;;;5053056;28;20180;-76
2023/04/18 04:26:08;;;;;;;22.83;12.03;;;8.40;83.40;;;;;;5048608;28;20213;-76
2023/04/18 04:28:34;;;;;;;22.77;12.13;;;8.40;83.60;;;;;;5052313;28;20244;-76
2023/04/18 04:31:02;;;;;;;30.73;14.47;;;8.40;83.60;;;;;;5054606;28;20216;-77
2023/04/18 04:33:28;;;;;;;25.60;12.27;;;8.40;83.60;;;;;;5053990;28;20427;-76
2023/04/18 04:35:54;;;;;;;22.30;12.93;;;8.40;83.10;;;;;;5050759;28;20470;-77
2023/04/18 04:38:21;;;;;;;23.23;12.30;;;8.30;83.40;;;;;;5054813;28;20427;-76
2023/04/18 04:40:48;;;;;;;27.40;13.80;;;8.30;83.70;;;;;;5062069;28;20430;-76
2023/04/18 04:43:15;;;;;;;28.27;13.30;;;8.30;83.70;;;;;;5057045;28;20549;-76
2023/04/18 04:45:41;;;;;;;33.50;14.40;;;8.20;83.70;;;;;;5061320;28;20542;-76
2023/04/18 04:48:08;;;;;;;28.07;13.73;;;8.20;83.70;;;;;;5058753;28;20898;-78
2023/04/18 04:50:39;;;;;;;26.60;13.80;;;8.20;83.70;;;;;;5053690;28;20411;-78
2023/04/18 04:53:05;;;;;;;23.07;12.70;;;8.20;83.80;;;;;;5053280;28;20789;-79
2023/04/18 04:55:31;;;;;;;25.27;13.60;;;8.30;84.00;;;;;;5052489;28;20949;-77
2023/04/18 04:57:57;;;;;;;26.80;13.80;;;8.30;84.10;;;;;;5049170;28;20431;-76
2023/04/18 05:00:23;;;;;;;27.70;14.40;;;8.30;84.00;;;;;;5053427;28;20441;-79
2023/04/18 05:02:50;;;;;;;27.40;14.40;;;8.40;83.80;;;;;;5053905;28;20586;-78
2023/04/18 05:05:15;;;;;;;26.83;14.50;;;8.40;83.80;;;;;;5055286;28;20545;-77
2023/04/18 05:07:41;;;;;;;27.07;14.20;;;8.40;83.80;;;;;;5053759;28;20470;-78
2023/04/18 05:10:07;;;;;;;25.90;13.60;;;8.40;83.80;;;;;;5053169;28;20177;-76
2023/04/18 05:12:32;;;;;;;23.90;14.00;;;8.30;83.40;;;;;;5053714;28;20184;-76
2023/04/18 05:14:58;;;;;;;26.33;13.37;;;8.30;83.60;;;;;;5052802;28;20426;-77
2023/04/18 05:17:23;;;;;;;30.07;15.10;;;8.20;83.70;;;;;;5050150;28;20204;-75
2023/04/18 05:19:49;;;;;;;28.17;13.90;;;8.20;84.10;;;;;;5034851;28;20192;-76
2023/04/18 05:22:15;;;;;;;24.83;13.17;;;8.20;84.30;;;;;;5051918;28;20572;-76
2023/04/18 05:24:41;;;;;;;26.93;13.80;;;8.20;84.30;;;;;;5050836;28;20501;-76
2023/04/18 05:27:06;;;;;;;23.00;13.17;;;8.30;83.80;;;;;;5044695;28;20232;-76
2023/04/18 05:29:32;;;;;;;33.77;14.50;;;8.20;83.60;;;;;;5051669;28;20184;-76
2023/04/18 05:31:58;;;;;;;27.60;12.80;;;8.20;83.80;;;;;;5051736;28;20563;-77
2023/04/18 05:34:23;;;;;;;31.43;13.97;;;8.20;84.00;;;;;;5052508;28;20168;-78
2023/04/18 05:36:49;;;;;;;33.00;14.10;;;8.10;84.10;;;;;;5053310;28;20207;-77
2023/04/18 05:39:15;;;;;;;26.30;13.67;;;8.10;84.60;;;;;;5055434;28;20177;-77
2023/04/18 05:41:41;;;;;;;27.20;13.43;;;8.20;84.60;;;;;;5057883;28;20207;-76
2023/04/18 05:44:07;;;;;;;25.73;13.97;;;8.20;84.10;;;;;;5059618;28;20988;-77
2023/04/18 05:46:33;;;;;;;31.20;13.70;;;8.30;84.30;;;;;;5055837;28;20487;-76
2023/04/18 05:48:58;;;;;;;30.20;14.40;;;8.30;84.00;;;;;;5063557;28;20181;-75
2023/04/18 05:51:25;;;;;;;27.10;13.13;;;8.40;83.70;;;;;;5057501;28;20188;-75
2023/04/18 05:53:51;;;;;;;28.33;14.57;;;8.40;83.40;;;;;;5052205;28;20552;-76
2023/04/18 05:56:16;;;;;;;34.17;14.93;;;8.40;83.40;;;;;;5047123;28;20464;-78
2023/04/18 05:58:43;;;;;;;30.10;14.00;;;8.50;83.30;;;;;;5051338;28;20184;-76
2023/04/18 06:01:09;;;;;;;31.83;13.57;;;8.50;83.00;;;;;;5047146;28;20577;-75
2023/04/18 06:03:35;;;;;;;32.53;14.60;;;8.50;82.80;;;;;;5051766;28;20429;-78
2023/04/18 06:06:00;;;;;;;33.90;15.13;;;8.40;82.80;;;;;;5050543;28;20528;-77
2023/04/18 06:08:26;;;;;;;29.07;13.10;;;8.40;83.10;;;;;;5033855;28;20192;-77
2023/04/18 06:10:52;;;;;;;29.33;14.27;;;8.40;83.30;;;;;;5052195;28;20185;-77
2023/04/18 06:13:17;;;;;;;31.97;15.60;;;8.40;83.40;;;;;;5057775;28;20176;-75
2023/04/18 06:15:43;;;;;;;27.10;14.13;;;8.40;83.60;;;;;;5058309;28;20208;-75
2023/04/18 06:18:08;;;;;;;32.13;16.00;;;8.40;83.70;;;;;;5059038;28;20184;-77
2023/04/18 06:20:34;;;;;;;29.23;14.67;;;8.40;83.40;;;;;;5059058;28;20193;-77
2023/04/18 06:23:00;;;;;;;28.50;15.00;;;8.50;83.60;;;;;;5054427;28;20181;-76
2023/04/18 06:25:26;;;;;;;25.97;14.87;;;8.50;83.60;;;;;;5055034;28;20266;-78
2023/04/18 06:27:52;;;;;;;30.13;15.13;;;8.50;83.30;;;;;;5032801;28;20184;-76
2023/04/18 06:30:20;;;;;;;31.07;15.30;;;8.50;83.40;;;;;;5055141;28;20494;-77
2023/04/18 06:32:46;;;;;;;26.03;14.80;;;8.60;83.30;;;;;;5055749;28;20177;-77
2023/04/18 06:35:12;;;;;;;32.57;15.50;;;8.60;83.10;;;;;;5057855;28;20796;-76
2023/04/18 06:37:38;;;;;;;32.60;15.40;;;8.60;82.70;;;;;;5050960;28;20540;-77
2023/04/18 06:40:04;;;;;;;26.00;14.20;;;8.60;82.70;;;;;;5035456;28;20185;-77
2023/04/18 06:42:30;;;;;;;34.97;16.70;;;8.60;82.80;;;;;;5052599;28;20860;-77
2023/04/18 06:44:56;;;;;;;37.30;15.50;;;8.70;82.50;;;;;;5035312;28;20493;-75
2023/04/18 06:47:21;;;;;;;27.50;13.23;;;8.80;82.80;;;;;;5046653;28;20283;-80
2023/04/18 06:49:47;;;;;;;30.63;14.57;;;8.70;82.20;;;;;;5053669;28;20206;-77
2023/04/18 06:52:12;;;;;;;28.03;14.97;;;8.60;82.10;;;;;;5055971;28;20275;-78
2023/04/18 06:54:38;;;;;;;31.23;15.10;;;8.60;82.70;;;;;;5053458;28;20191;-76
2023/04/18 06:57:04;;;;;;;26.57;14.10;;;8.70;82.50;;;;;;5055397;28;20227;-77
2023/04/18 06:59:29;;;;;;;28.63;15.20;;;8.80;82.50;;;;;;5059713;28;20243;-76
2023/04/18 07:01:55;;;;;;;43.50;16.90;;;8.90;82.20;;;;;;5059020;28;20180;-76
2023/04/18 07:04:21;;;;;;;31.80;14.17;;;8.90;81.70;;;;;;5038966;28;20219;-75
2023/04/18 07:06:46;;;;;;;55.77;17.90;;;9.00;81.80;;;;;;5049885;28;20200;-76
2023/04/18 07:09:12;;;;;;;28.70;13.67;;;9.00;81.80;;;;;;5062571;28;20237;-78
2023/04/18 07:11:39;;;;;;;26.93;13.43;;;9.00;81.40;;;;;;5046856;28;20298;-77
2023/04/18 07:14:04;;;;;;;32.03;15.03;;;9.10;81.50;;;;;;5058959;28;20259;-76
2023/04/18 07:16:30;;;;;;;32.70;15.77;;;9.20;81.20;;;;;;5036482;28;20502;-78
2023/04/18 07:18:56;;;;;;;33.27;15.40;;;9.20;81.10;;;;;;5063348;28;20185;-77
2023/04/18 07:21:22;;;;;;;31.47;14.10;;;9.10;80.90;;;;;;5062903;28;20286;-76
2023/04/18 07:23:48;;;;;;;33.03;14.80;;;9.00;81.70;;;;;;5062945;28;20176;-77
2023/04/18 07:26:13;;;;;;;26.30;14.80;;;9.00;82.10;;;;;;5055070;28;20502;-76
2023/04/18 07:28:39;;;;;;;30.17;14.60;;;9.10;81.70;;;;;;5068244;28;20181;-77
2023/04/18 07:31:09;;;;;;;31.20;15.23;;;9.00;81.90;;;;;;5059947;28;20187;-77
2023/04/18 07:33:35;;;;;;;23.73;13.07;;;9.00;82.20;;;;;;5071781;28;20185;-77
2023/04/18 07:36:01;;;;;;;24.53;13.77;;;9.10;82.20;;;;;;5067556;28;20443;-76
2023/04/18 07:38:27;;;;;;;28.17;14.40;;;9.20;81.90;;;;;;5058995;28;20246;-76
2023/04/18 07:40:57;;;;;;;32.60;14.70;;;9.30;81.70;;;;;;5058457;28;20419;-76
2023/04/18 07:43:23;;;;;;;28.33;12.17;;;9.30;81.40;;;;;;5054751;28;20197;-76
2023/04/18 07:45:48;;;;;;;24.93;13.20;;;9.40;81.40;;;;;;5054057;28;21143;-76
2023/04/18 07:48:14;;;;;;;21.40;12.20;;;9.50;81.20;;;;;;5054210;28;20291;-75
2023/04/18 07:50:39;;;;;;;24.23;12.70;;;9.60;81.10;;;;;;5036117;28;20216;-76
2023/04/18 07:53:05;;;;;;;25.47;12.90;;;9.60;80.60;;;;;;5054025;28;20195;-76
2023/04/18 07:55:31;;;;;;;28.40;13.93;;;9.50;80.60;;;;;;5054050;28;20204;-76
2023/04/18 07:57:56;;;;;;;26.40;13.80;;;9.50;80.80;;;;;;5053393;28;20188;-77
2023/04/18 08:00:22;;;;;;;25.20;13.13;;;9.60;81.10;;;;;;5053878;28;20197;-76
2023/04/18 08:02:47;;;;;;;26.83;13.73;;;9.60;80.80;;;;;;5052053;28;20193;-78
2023/04/18 08:05:13;;;;;;;30.97;14.40;;;9.60;80.60;;;;;;5053267;28;20573;-76
2023/04/18 08:07:39;;;;;;;26.77;13.73;;;9.80;80.30;;;;;;5047210;28;20576;-76
2023/04/18 08:10:05;;;;;;;25.60;13.30;;;9.80;79.90;;;;;;5035677;28;20184;-77
2023/04/18 08:12:31;;;;;;;22.70;13.00;;;9.70;80.00;;;;;;5056215;28;20434;-76
2023/04/18 08:14:56;;;;;;;27.83;13.73;;;9.90;79.90;;;;;;5056164;28;20415;-77
2023/04/18 08:17:22;;;;;;;27.40;14.90;;;10.10;79.70;;;;;;5030293;28;20240;-75
2023/04/18 08:19:48;;;;;;;29.43;13.83;;;10.30;78.90;;;;;;5054246;28;20177;-76
2023/04/18 08:22:14;;;;;;;27.57;13.87;;;10.30;78.00;;;;;;5053949;28;20423;-77
2023/04/18 08:24:39;;;;;;;27.87;14.30;;;10.30;78.60;;;;;;5053722;28;20246;-77
2023/04/18 08:27:05;;;;;;;29.97;13.53;;;10.50;78.10;;;;;;5059319;28;20223;-77
2023/04/18 08:29:31;;;;;;;31.63;14.03;;;10.50;77.60;;;;;;5069055;28;20415;-77
2023/04/18 08:31:57;;;;;;;26.43;14.57;;;10.60;77.80;;;;;;5066272;28;20202;-77
2023/04/18 08:34:23;;;;;;;28.80;14.50;;;10.70;77.60;;;;;;5068376;28;20801;-75
2023/04/18 08:36:50;;;;;;;22.00;13.27;;;10.70;77.40;;;;;;5063735;28;20260;-76
2023/04/18 08:39:15;;;;;;;22.50;11.77;;;10.90;77.10;;;;;;5065282;28;20180;-75
2023/04/18 08:41:42;;;;;;;32.53;14.30;;;11.00;76.40;;;;;;5039620;28;20933;-74
2023/04/18 08:44:07;;;;;;;24.63;12.43;;;11.00;75.90;;;;;;5054695;28;20492;-76
2023/04/18 08:46:34;;;;;;;23.27;12.13;;;11.00;76.10;;;;;;5047907;28;20470;-77
2023/04/18 08:49:02;;;;;;;28.90;13.70;;;11.00;75.90;;;;;;5053481;28;20179;-75
2023/04/18 08:51:38;;;;;;;24.63;14.53;;;11.10;76.10;;;;;;5054038;28;20798;-77
2023/04/18 08:54:08;;;;;;;31.17;13.33;;;11.30;75.50;;;;;;5052474;28;20415;-76
2023/04/18 08:56:36;;;;;;;24.03;12.83;;;11.30;75.50;;;;;;5045211;28;20461;-77
2023/04/18 08:59:02;;;;;;;25.43;14.10;;;11.50;75.20;;;;;;5052894;28;20423;-75
2023/04/18 09:01:51;;;;;;;28.67;14.93;;;11.60;74.30;;;;;;5052920;28;20442;-74
2023/04/18 09:04:37;;;;;;;28.43;14.13;;;11.60;74.30;;;;;;5050073;28;20481;-77
2023/04/18 09:07:05;;;;;;;24.27;13.13;;;11.80;74.50;;;;;;5047849;28;20463;-76
2023/04/18 09:09:39;;;;;;;28.80;14.53;;;12.00;73.70;;;;;;5055382;28;20945;-76
2023/04/18 09:12:10;;;;;;;24.20;13.87;;;11.80;73.30;;;;;;5039414;28;20533;-77
2023/04/18 09:14:36;;;;;;;25.23;13.33;;;11.70;73.70;;;;;;5053031;28;20415;-75
2023/04/18 09:17:04;;;;;;;29.00;14.20;;;11.70;74.20;;;;;;5051500;28;20451;-77
2023/04/18 09:19:29;;;;;;;25.27;12.43;;;11.50;74.00;;;;;;5034717;28;20429;-77
2023/04/18 09:22:00;;;;;;;28.97;14.47;;;11.40;74.60;;;;;;5051794;28;20874;-76
2023/04/18 09:24:29;;;;;;;26.00;13.00;;;11.50;75.20;;;;;;5052082;28;20184;-77
2023/04/18 09:26:57;;;;;;;26.60;13.30;;;11.40;75.10;;;;;;5045434;28;20833;-76
2023/04/18 09:29:44;;;;;;;25.20;13.83;;;11.30;75.50;;;;;;5034162;28;20467;-77
2023/04/18 09:32:18;;;;;;;25.97;13.63;;;11.30;75.50;;;;;;5051380;28;20415;-78
2023/04/18 09:34:43;;;;;;;25.47;13.00;;;11.20;75.90;;;;;;5051644;28;20417;-77
2023/04/18 09:37:11;;;;;;;28.70;13.93;;;11.30;75.90;;;;;;5043013;28;20455;-77
2023/04/18 09:39:38;;;;;;;29.40;14.20;;;11.40;75.70;;;;;;5051939;28;20230;-77
2023/04/18 09:42:04;;;;;;;27.50;14.97;;;11.40;75.70;;;;;;5051551;28;20426;-77
2023/04/18 09:44:30;;;;;;;29.10;12.83;;;11.50;75.20;;;;;;5051115;28;20518;-77
2023/04/18 09:46:56;;;;;;;30.23;14.03;;;11.50;75.10;;;;;;5049483;28;21265;-76
2023/04/18 09:49:22;;;;;;;28.63;14.80;;;11.60;74.80;;;;;;5051930;28;20829;-78
2023/04/18 09:51:50;;;;;;;25.23;14.17;;;11.70;74.80;;;;;;5033626;28;20208;-77
2023/04/18 09:54:17;;;;;;;24.40;13.43;;;11.80;73.90;;;;;;5052075;28;20419;-76
2023/04/18 09:56:44;;;;;;;26.23;14.50;;;11.90;73.30;;;;;;5046453;28;20458;-78
2023/04/18 09:59:11;;;;;;;22.10;13.50;;;11.90;73.30;;;;;;5051505;28;20443;-78
2023/04/18 10:01:39;;;;;;;26.67;14.43;;;12.00;73.00;;;;;;5051783;28;20438;-77
2023/04/18 10:04:06;;;;;;;23.80;13.60;;;12.10;72.60;;;;;;5051308;28;20415;-76
2023/04/18 10:06:38;;;;;;;23.63;13.40;;;12.20;72.30;;;;;;5029306;28;20562;-77
2023/04/18 10:09:05;;;;;;;26.37;14.23;;;12.30;72.00;;;;;;5053956;28;20431;-77
2023/04/18 10:11:31;;;;;;;28.13;13.57;;;12.50;71.60;;;;;;5058885;28;21040;-77
2023/04/18 10:14:02;;;;;;;25.53;13.43;;;12.60;71.10;;;;;;5059914;28;20426;-77
2023/04/18 10:16:28;;;;;;;28.30;15.13;;;12.60;70.70;;;;;;5054054;28;20454;-76
2023/04/18 10:18:54;;;;;;;23.40;14.57;;;12.70;71.10;;;;;;5057607;28;20430;-77
2023/04/18 10:21:20;;;;;;;26.57;13.53;;;12.70;70.80;;;;;;5055100;28;20422;-77
2023/04/18 10:23:47;;;;;;;26.27;15.87;;;12.50;70.70;;;;;;5065545;28;20450;-78
2023/04/18 10:26:13;;;;;;;19.63;12.30;;;12.60;71.00;;;;;;5059688;28;20578;-74
2023/04/18 10:28:58;;;;;;;23.03;11.90;;;12.70;70.70;;;;;;5051390;28;20509;-76
2023/04/18 10:31:25;;;;;;;23.50;12.33;;;12.90;70.70;;;;;;5050870;28;20453;-76
2023/04/18 10:33:58;;;;;;;19.40;11.20;;;13.10;70.20;;;;;;5035081;28;20533;-75
2023/04/18 10:36:25;;;;;;;19.73;11.03;;;13.20;69.90;;;;;;5053019;28;20540;-75
2023/04/18 10:38:53;;;;;;;24.03;12.10;;;13.20;69.50;;;;;;5048919;28;20431;-75
2023/04/18 10:41:21;;;;;;;19.40;11.30;;;13.20;69.50;;;;;;5037888;28;20430;-75
2023/04/18 10:44:08;;;;;;;20.40;11.27;;;13.30;69.70;;;;;;5054269;28;20457;-76
2023/04/18 10:46:38;;;;;;;16.70;10.80;;;13.30;69.50;;;;;;5046706;28;20544;-76
2023/04/18 10:49:15;;;;;;;18.27;10.90;;;13.30;69.40;;;;;;5056188;28;20909;-76
2023/04/18 10:51:43;;;;;;;19.27;10.73;;;13.40;69.40;;;;;;5056055;28;20971;-75
2023/04/18 10:54:11;;;;;;;19.83;10.87;;;13.50;69.10;;;;;;5038973;28;20423;-75
2023/04/18 10:56:38;;;;;;;21.33;11.67;;;13.70;68.90;;;;;;5048882;28;21052;-75
2023/04/18 10:59:04;;;;;;;19.53;11.07;;;13.50;68.50;;;;;;5055767;28;20932;-75
2023/04/18 11:01:31;;;;;;;16.90;9.43;;;13.50;68.90;;;;;;5055145;28;20492;-76
2023/04/18 11:03:58;;;;;;;18.10;10.13;;;13.50;69.10;;;;;;5054916;28;20422;-75
2023/04/18 11:06:27;;;;;;;20.30;10.60;;;13.70;68.90;;;;;;5049274;28;20471;-76
2023/04/18 11:09:12;;;;;;;18.43;10.60;;;14.00;68.20;;;;;;5055763;28;20415;-75
2023/04/18 11:11:38;;;;;;;15.57;9.60;;;14.10;68.30;;;;;;5057111;28;20434;-75
2023/04/18 11:14:04;;;;;;;15.77;9.30;;;14.20;68.60;;;;;;5061623;28;20415;-75
2023/04/18 11:16:31;;;;;;;14.23;9.23;;;14.20;68.30;;;;;;5062920;28;20458;-76
2023/04/18 11:18:57;;;;;;;16.20;9.70;;;14.20;68.80;;;;;;5061689;28;20176;-77
2023/04/18 11:21:27;;;;;;;15.23;9.17;;;14.20;68.60;;;;;;5060050;28;20450;-76
2023/04/18 11:23:56;;;;;;;12.90;8.60;;;14.10;69.10;;;;;;5058111;28;20196;-76
2023/04/18 11:26:27;;;;;;;14.10;8.83;;;14.10;69.10;;;;;;5051231;28;20485;-77
2023/04/18 11:28:56;;;;;;;15.20;7.97;;;14.20;69.20;;;;;;5056210;28;20423;-76
2023/04/18 11:31:23;;;;;;;17.53;9.33;;;14.20;69.10;;;;;;5056549;28;20433;-75
2023/04/18 11:33:49;;;;;;;13.67;8.03;;;14.10;69.20;;;;;;5037434;28;20423;-76
2023/04/18 11:36:15;;;;;;;16.10;8.77;;;13.90;69.70;;;;;;5053032;28;20462;-77
2023/04/18 11:38:41;;;;;;;15.90;9.33;;;14.00;69.80;;;;;;5054967;28;20433;-75
2023/04/18 11:41:14;;;;;;;12.30;7.50;;;14.10;69.80;;;;;;5054324;28;20184;-75
2023/04/18 11:43:44;;;;;;;14.07;8.43;;;14.20;69.70;;;;;;5053424;28;20219;-74
2023/04/18 11:46:11;;;;;;;11.30;7.37;;;14.20;69.50;;;;;;5032737;28;20463;-76
2023/04/18 11:48:41;;;;;;;12.00;7.63;;;14.10;69.50;;;;;;5054329;28;20423;-75
2023/04/18 11:51:28;;;;;;;17.60;9.50;;;14.00;69.80;;;;;;5054461;28;20450;-77
2023/04/18 11:53:53;;;;;;;14.30;8.67;;;13.90;69.90;;;;;;5052422;28;20434;-74
2023/04/18 11:56:19;;;;;;;15.30;8.67;;;13.70;70.70;;;;;;5047521;28;20486;-76
2023/04/18 11:58:45;;;;;;;15.23;7.50;;;13.60;70.70;;;;;;5054580;28;20206;-76
2023/04/18 12:01:15;;;;;;;14.53;8.03;;;13.60;71.00;;;;;;5041292;28;20279;-75
2023/04/18 12:03:43;;;;;;;17.13;8.97;;;13.60;71.00;;;;;;5059140;28;20427;-76
2023/04/18 12:06:08;;;;;;;13.47;7.63;;;13.70;71.10;;;;;;5048504;28;20496;-74
2023/04/18 12:08:34;;;;;;;15.10;8.30;;;13.80;70.70;;;;;;5051868;28;20909;-76
2023/04/18 12:11:00;;;;;;;12.90;8.20;;;13.90;70.40;;;;;;5053459;28;20173;-75
2023/04/18 12:13:30;;;;;;;16.43;9.00;;;13.90;70.40;;;;;;5053361;28;20189;-76
2023/04/18 12:15:55;;;;;;;17.83;9.37;;;13.90;71.00;;;;;;5049642;28;20213;-76
2023/04/18 12:18:23;;;;;;;18.97;9.20;;;13.80;71.00;;;;;;5050407;28;20419;-74
2023/04/18 12:20:52;;;;;;;18.23;9.80;;;13.80;71.60;;;;;;5052945;28;20187;-76
2023/04/18 12:23:32;;;;;;;15.57;9.00;;;13.80;71.60;;;;;;5034926;28;20427;-76
2023/04/18 12:25:59;;;;;;;20.20;9.40;;;13.90;71.60;;;;;;5047498;28;20474;-76
2023/04/18 12:28:26;;;;;;;15.83;8.33;;;14.00;71.40;;;;;;5052003;28;20552;-75
2023/04/18 12:30:51;;;;;;;10.83;6.90;;;13.90;70.40;;;;;;5055260;28;20502;-75
2023/04/18 12:33:18;;;;;;;14.07;8.13;;;13.90;70.40;;;;;;5058072;28;20458;-76